Terminal Aerodrome Forecast
Issued by NWS

Home | Current Version | Previous Version | Text Only | Print | Product List | Glossary On
Versions: 1 2 3 4 5 6 7 8 9 10 11 12 13 14 15
000
FTUS44 KSJT 021000 AAA
TAFSOA
TAF AMD
KSOA 021002Z 0210/0306 17010KT P6SM BKN012
     FM021600 19010G16KT P6SM SCT020
     FM022100 26007KT P6SM SCT050
     FM030100 35010KT P6SM SKC=

USA.gov is the U.S. government's official web portal to all federal, state and local government web resources and services.